Time;durP1;ratioP1;P1;durP2;ratioP2;P2;SDS_P1;SDS_P2;PMS_P1;PMS_P2;Temp;Humidity;BMP_temperature;BMP_pressure;BME280_temperature;BME280_humidity;BME280_pressure;Samples;Min_cycle;Max_cycle;Signal;HPM_P1;HPM_P2
2023/02/27 00:02:13;;;;;;;1.08;0.45;;;3.40;65.70;;;;;;5098851;28;20028;-84
2023/02/27 00:04:39;;;;;;;0.70;0.38;;;3.40;66.30;;;;;;5109384;28;20476;-84
2023/02/27 00:07:06;;;;;;;1.05;0.50;;;3.40;66.20;;;;;;5097879;28;20115;-83
2023/02/27 00:09:32;;;;;;;1.02;0.55;;;3.40;66.30;;;;;;5097472;28;20032;-84
2023/02/27 00:11:58;;;;;;;0.90;0.47;;;3.30;66.90;;;;;;5093487;28;20154;-83
2023/02/27 00:14:23;;;;;;;0.40;0.30;;;3.30;66.80;;;;;;5098233;28;20028;-83
2023/02/27 00:16:49;;;;;;;0.68;0.35;;;3.30;67.20;;;;;;5097808;28;20445;-80
2023/02/27 00:19:15;;;;;;;0.88;0.38;;;3.20;67.30;;;;;;5098293;28;20024;-80
2023/02/27 00:21:43;;;;;;;1.70;0.43;;;3.20;67.90;;;;;;5099733;28;20380;-80
2023/02/27 00:24:09;;;;;;;0.52;0.40;;;3.20;68.20;;;;;;5099500;28;20468;-81
2023/02/27 00:26:36;;;;;;;1.05;0.60;;;3.20;68.60;;;;;;5099734;28;20101;-81
2023/02/27 00:29:02;;;;;;;1.48;0.75;;;3.20;68.40;;;;;;5098241;28;20031;-81
2023/02/27 00:31:28;;;;;;;0.73;0.45;;;3.20;68.70;;;;;;5099627;28;20016;-81
2023/02/27 00:33:54;;;;;;;1.50;0.68;;;3.20;68.80;;;;;;5098549;28;20026;-81
2023/02/27 00:36:20;;;;;;;0.65;0.45;;;3.20;69.30;;;;;;5099037;28;20438;-80
2023/02/27 00:38:45;;;;;;;1.05;0.50;;;3.10;69.00;;;;;;5098800;28;20032;-81
2023/02/27 00:41:11;;;;;;;0.77;0.75;;;3.10;69.30;;;;;;5094711;28;20032;-81
2023/02/27 00:43:37;;;;;;;0.45;0.40;;;3.10;69.40;;;;;;5093962;28;20060;-89
2023/02/27 00:46:02;;;;;;;0.95;0.57;;;3.20;69.70;;;;;;5098393;28;20032;-85
2023/02/27 00:48:28;;;;;;;0.98;0.52;;;3.10;69.80;;;;;;5132008;27;20055;-86
2023/02/27 00:50:54;;;;;;;0.47;0.30;;;3.10;69.80;;;;;;5099546;28;20020;-85
2023/02/27 00:53:19;;;;;;;1.35;0.60;;;3.10;70.00;;;;;;5098879;28;20065;-84
2023/02/27 00:55:45;;;;;;;1.45;0.60;;;3.10;70.10;;;;;;5098020;28;20030;-86
2023/02/27 00:58:11;;;;;;;1.10;0.50;;;3.00;70.20;;;;;;5098043;28;20028;-85
2023/02/27 01:00:36;;;;;;;0.82;0.60;;;3.00;70.60;;;;;;5099186;28;20020;-86
2023/02/27 01:03:02;;;;;;;0.43;0.38;;;3.00;71.10;;;;;;5099051;28;20073;-85
2023/02/27 01:05:28;;;;;;;1.10;0.52;;;2.90;71.80;;;;;;5099026;28;20060;-86
2023/02/27 01:07:54;;;;;;;0.73;0.40;;;2.90;72.00;;;;;;5098567;28;20020;-83
2023/02/27 01:10:20;;;;;;;1.10;0.75;;;2.90;72.80;;;;;;5097405;28;20024;-84
2023/02/27 01:12:45;;;;;;;0.73;0.43;;;2.90;72.60;;;;;;5098646;28;20039;-82
2023/02/27 01:15:13;;;;;;;1.50;0.60;;;2.90;73.00;;;;;;5098619;28;20028;-82
2023/02/27 01:17:39;;;;;;;0.50;0.30;;;2.90;72.90;;;;;;5098160;28;20027;-82
2023/02/27 01:20:07;;;;;;;1.50;0.50;;;2.90;73.80;;;;;;5097809;28;20027;-83
2023/02/27 01:22:33;;;;;;;1.08;0.52;;;2.90;74.20;;;;;;5098619;28;20027;-83
2023/02/27 01:24:59;;;;;;;0.70;0.40;;;2.80;74.40;;;;;;5096709;28;20028;-84
2023/02/27 01:27:25;;;;;;;0.60;0.38;;;2.80;75.70;;;;;;5098362;28;20027;-84
2023/02/27 01:29:51;;;;;;;1.13;0.63;;;2.80;74.90;;;;;;5098507;28;20384;-82
2023/02/27 01:32:17;;;;;;;1.73;0.50;;;2.80;74.80;;;;;;5098500;28;20024;-83
2023/02/27 01:34:42;;;;;;;1.33;0.50;;;2.80;75.40;;;;;;5098329;28;20052;-84
2023/02/27 01:37:08;;;;;;;1.02;0.50;;;2.80;75.70;;;;;;5097174;28;20043;-84
2023/02/27 01:39:35;;;;;;;2.05;0.60;;;2.80;76.00;;;;;;5096659;28;20074;-82
2023/02/27 01:42:01;;;;;;;0.70;0.38;;;2.70;77.00;;;;;;5095951;28;20012;-82
2023/02/27 01:44:28;;;;;;;1.00;0.43;;;2.70;76.30;;;;;;5098261;28;20016;-82
2023/02/27 01:46:55;;;;;;;1.33;0.55;;;2.70;76.90;;;;;;5096736;28;20048;-83
2023/02/27 01:49:29;;;;;;;0.90;0.50;;;2.70;77.80;;;;;;5096226;28;20032;-82
2023/02/27 01:52:04;;;;;;;1.15;0.40;;;2.70;77.10;;;;;;5084668;28;20024;-82
2023/02/27 01:54:34;;;;;;;1.17;0.40;;;2.70;78.00;;;;;;5095830;28;20055;-82
2023/02/27 01:57:02;;;;;;;0.68;0.38;;;2.70;78.00;;;;;;5096960;28;20132;-82
2023/02/27 01:59:28;;;;;;;1.67;0.60;;;2.70;77.80;;;;;;5096899;28;20028;-82
2023/02/27 02:01:56;;;;;;;0.45;0.35;;;2.70;77.70;;;;;;5097518;28;20020;-83
2023/02/27 02:04:25;;;;;;;1.60;0.50;;;2.80;77.40;;;;;;5097702;28;20016;-84
2023/02/27 02:07:14;;;;;;;0.47;0.32;;;2.80;76.90;;;;;;5097840;28;20080;-86
2023/02/27 02:09:54;;;;;;;1.00;0.63;;;2.80;76.70;;;;;;5084540;28;20024;-84
2023/02/27 02:12:23;;;;;;;0.52;0.30;;;2.70;76.50;;;;;;5096755;28;20078;-83
2023/02/27 02:14:50;;;;;;;0.63;0.30;;;2.80;76.70;;;;;;5095893;28;20028;-84
2023/02/27 02:17:31;;;;;;;0.70;0.38;;;2.70;76.90;;;;;;5097602;28;20536;-83
2023/02/27 02:20:30;;;;;;;1.35;0.52;;;2.70;77.20;;;;;;5096131;28;20024;-83
2023/02/27 02:23:04;;;;;;;0.68;0.40;;;2.60;77.20;;;;;;5096718;28;20024;-84
2023/02/27 02:25:57;;;;;;;0.88;0.30;;;2.60;77.70;;;;;;5095144;28;20114;-83
2023/02/27 02:28:42;;;;;;;0.93;0.50;;;2.60;78.30;;;;;;5096698;28;20036;-85
2023/02/27 02:31:26;;;;;;;0.43;0.30;;;2.50;80.70;;;;;;5096240;28;20119;-85
2023/02/27 02:34:23;;;;;;;0.60;0.40;;;2.60;80.00;;;;;;5097456;28;20028;-85
2023/02/27 02:36:50;;;;;;;0.60;0.50;;;2.50;80.20;;;;;;5054262;28;20514;-85
2023/02/27 02:39:34;;;;;;;1.75;0.60;;;2.50;81.60;;;;;;5097029;28;20032;-85
2023/02/27 02:42:07;;;;;;;0.60;0.38;;;2.50;83.90;;;;;;5096222;28;20050;-84
2023/02/27 02:44:43;;;;;;;1.38;0.50;;;2.50;83.60;;;;;;5096351;28;20028;-81
2023/02/27 02:47:19;;;;;;;1.60;0.80;;;2.50;85.70;;;;;;5097042;28;20043;-81
2023/02/27 02:50:07;;;;;;;0.80;0.45;;;2.50;85.10;;;;;;5097245;28;20071;-81
2023/02/27 02:53:03;;;;;;;1.75;0.50;;;2.50;83.50;;;;;;5096242;28;20093;-80
2023/02/27 02:55:40;;;;;;;2.50;0.40;;;2.50;85.80;;;;;;5101062;28;20020;-81
2023/02/27 02:58:11;;;;;;;1.85;0.40;;;2.50;85.60;;;;;;5101186;28;20145;-81
2023/02/27 03:00:53;;;;;;;0.73;0.40;;;2.50;86.60;;;;;;5101079;28;20042;-84
2023/02/27 03:03:38;;;;;;;1.13;0.57;;;2.50;87.10;;;;;;5100712;28;20044;-84
2023/02/27 03:06:26;;;;;;;1.40;0.40;;;2.40;86.60;;;;;;5101357;28;20171;-85
2023/02/27 03:08:58;;;;;;;1.05;0.82;;;2.50;86.60;;;;;;5099768;28;20501;-85
2023/02/27 03:11:28;;;;;;;0.57;0.40;;;2.40;87.40;;;;;;5099351;28;20032;-86
2023/02/27 03:14:02;;;;;;;1.63;0.32;;;2.50;87.60;;;;;;5099614;28;20024;-86
2023/02/27 03:16:33;;;;;;;0.43;0.40;;;2.40;87.80;;;;;;5100834;28;20407;-86
2023/02/27 03:19:09;;;;;;;1.33;0.60;;;2.40;88.00;;;;;;5101004;28;20108;-86
2023/02/27 03:21:49;;;;;;;1.50;0.40;;;2.50;88.10;;;;;;5099743;28;20020;-85
2023/02/27 03:24:42;;;;;;;0.70;0.40;;;2.40;88.50;;;;;;5100333;28;20020;-86
2023/02/27 03:27:08;;;;;;;1.30;0.45;;;2.50;86.50;;;;;;5094457;28;20085;-83
2023/02/27 03:30:00;;;;;;;0.95;0.50;;;2.50;87.20;;;;;;5088456;28;20024;-83
2023/02/27 03:32:52;;;;;;;0.65;0.35;;;2.50;88.40;;;;;;5099684;28;20046;-84
2023/02/27 03:35:18;;;;;;;1.38;0.50;;;2.40;88.10;;;;;;5093448;28;20052;-83
2023/02/27 03:38:07;;;;;;;1.20;0.50;;;2.40;90.30;;;;;;5099321;28;20020;-84
2023/02/27 03:40:37;;;;;;;0.98;0.45;;;2.40;88.90;;;;;;5100466;28;20439;-84
2023/02/27 03:43:45;;;;;;;1.90;0.60;;;2.40;89.40;;;;;;5099151;28;20052;-84
2023/02/27 03:46:17;;;;;;;1.40;0.52;;;2.40;88.40;;;;;;5100495;28;20549;-85
2023/02/27 03:48:44;;;;;;;0.30;0.30;;;2.40;89.50;;;;;;5100208;28;20028;-82
2023/02/27 03:51:18;;;;;;;1.20;0.60;;;2.40;89.10;;;;;;5099184;28;20024;-82
2023/02/27 03:54:12;;;;;;;0.65;0.45;;;2.40;89.30;;;;;;5100133;28;20028;-81
2023/02/27 03:57:00;;;;;;;0.95;0.50;;;2.40;89.80;;;;;;5099057;28;20039;-82
2023/02/27 03:59:27;;;;;;;0.82;0.40;;;2.40;90.00;;;;;;5098645;28;20073;-79
2023/02/27 04:01:55;;;;;;;0.57;0.32;;;2.40;90.30;;;;;;5099825;28;20073;-82
2023/02/27 04:04:21;;;;;;;0.52;0.40;;;2.40;90.20;;;;;;5098391;28;20020;-81
2023/02/27 04:09:37;;;;;;;1.63;0.43;;;2.40;90.20;;;;;;5099768;28;20103;-82
2023/02/27 04:12:10;;;;;;;0.50;0.40;;;2.30;90.30;;;;;;5098350;28;20051;-82
2023/02/27 04:14:45;;;;;;;0.63;0.40;;;2.30;90.00;;;;;;5098490;28;20483;-81
2023/02/27 04:17:27;;;;;;;0.35;0.30;;;2.30;90.80;;;;;;5099839;28;20064;-82
2023/02/27 04:20:22;;;;;;;0.63;0.40;;;2.30;90.20;;;;;;5086984;28;20387;-81
2023/02/27 04:23:16;;;;;;;0.60;0.38;;;2.30;89.90;;;;;;5087199;28;20036;-80
2023/02/27 04:26:17;;;;;;;1.25;0.40;;;2.30;90.20;;;;;;5098239;28;20024;-79
2023/02/27 04:29:06;;;;;;;0.40;0.30;;;2.30;90.60;;;;;;5098026;28;20487;-81
2023/02/27 04:31:34;;;;;;;1.27;0.38;;;2.30;90.50;;;;;;5099507;28;20024;-81
2023/02/27 04:34:10;;;;;;;1.38;0.30;;;2.30;90.80;;;;;;5098750;28;20035;-80
2023/02/27 04:36:46;;;;;;;0.40;0.27;;;2.30;91.20;;;;;;5098298;28;20488;-80
2023/02/27 04:39:24;;;;;;;1.13;0.52;;;2.20;90.30;;;;;;5097603;28;20483;-81
2023/02/27 04:42:00;;;;;;;0.95;0.47;;;2.30;90.40;;;;;;5098903;28;20020;-80
2023/02/27 04:44:29;;;;;;;1.00;0.60;;;2.20;90.40;;;;;;5098002;28;20028;-81
2023/02/27 04:46:57;;;;;;;1.02;0.35;;;2.20;90.60;;;;;;5098885;28;20052;-80
2023/02/27 04:49:30;;;;;;;0.70;0.50;;;2.20;90.60;;;;;;5097801;28;20030;-80
2023/02/27 04:52:13;;;;;;;0.45;0.40;;;2.10;90.60;;;;;;5099032;28;20024;-81
2023/02/27 04:54:55;;;;;;;0.43;0.30;;;2.20;90.10;;;;;;5099146;28;20043;-82
2023/02/27 04:57:30;;;;;;;0.55;0.32;;;2.20;90.30;;;;;;5098827;28;20282;-81
2023/02/27 05:00:00;;;;;;;2.40;0.50;;;2.20;90.70;;;;;;5098805;28;20070;-82
2023/02/27 05:02:34;;;;;;;0.38;0.38;;;2.20;90.80;;;;;;5097728;28;20028;-83
2023/02/27 05:05:06;;;;;;;0.20;0.17;;;2.10;90.30;;;;;;5098928;28;20565;-82
2023/02/27 05:07:40;;;;;;;0.45;0.45;;;2.10;90.20;;;;;;5097610;28;20667;-82
2023/02/27 05:10:15;;;;;;;1.65;0.35;;;2.10;89.50;;;;;;5098449;28;20028;-82
2023/02/27 05:12:49;;;;;;;1.38;0.40;;;2.10;90.20;;;;;;5097669;28;20505;-82
2023/02/27 05:15:21;;;;;;;;;;;2.10;90.10;;;;;;5087609;28;20031;-82
2023/02/27 05:17:50;;;;;;;0.30;0.20;;;2.00;88.90;;;;;;5095872;28;19962;-82
2023/02/27 05:20:16;;;;;;;0.70;0.30;;;2.00;90.70;;;;;;5097830;28;20051;-82
2023/02/27 05:22:57;;;;;;;0.50;0.30;;;2.00;92.00;;;;;;5098584;28;20024;-81
2023/02/27 05:25:36;;;;;;;0.55;0.30;;;2.00;91.20;;;;;;5098538;28;20428;-81
2023/02/27 05:28:09;;;;;;;0.30;0.30;;;1.90;90.60;;;;;;5097238;28;20050;-82
2023/02/27 05:30:37;;;;;;;0.52;0.30;;;1.90;91.30;;;;;;5096910;28;20041;-82
2023/02/27 05:33:10;;;;;;;0.85;0.30;;;1.90;91.90;;;;;;5098562;28;20099;-82
2023/02/27 05:36:00;;;;;;;0.97;0.40;;;1.90;91.30;;;;;;5098298;28;20020;-81
2023/02/27 05:38:32;;;;;;;1.38;0.50;;;1.90;91.00;;;;;;5097069;28;20058;-83
2023/02/27 05:41:10;;;;;;;0.82;0.38;;;1.90;91.80;;;;;;5097186;28;20020;-84
2023/02/27 05:43:43;;;;;;;0.32;0.28;;;1.90;91.80;;;;;;5098237;28;20016;-84
2023/02/27 05:46:12;;;;;;;;;;;1.90;92.50;;;;;;5098850;28;20073;-84
2023/02/27 05:48:44;;;;;;;0.52;0.20;;;1.90;91.60;;;;;;5098040;28;19914;-84
2023/02/27 05:51:13;;;;;;;0.40;0.20;;;1.90;92.00;;;;;;5097137;28;20380;-83
2023/02/27 05:53:44;;;;;;;0.80;0.30;;;1.90;92.00;;;;;;5096221;28;20408;-83
2023/02/27 05:56:13;;;;;;;1.10;0.38;;;1.90;92.00;;;;;;5096321;28;20050;-84
2023/02/27 05:58:49;;;;;;;0.85;0.40;;;1.90;92.50;;;;;;5096335;28;20034;-84
2023/02/27 06:01:14;;;;;;;0.95;0.35;;;1.80;92.30;;;;;;5097651;28;20024;-83
2023/02/27 06:03:40;;;;;;;1.50;0.35;;;1.80;92.50;;;;;;5097358;28;20050;-84
2023/02/27 06:06:12;;;;;;;0.65;0.40;;;1.90;93.10;;;;;;5096178;28;20499;-83
2023/02/27 06:08:38;;;;;;;0.65;0.40;;;1.80;92.70;;;;;;5096373;28;20457;-82
2023/02/27 06:11:04;;;;;;;0.38;0.20;;;1.90;92.80;;;;;;5096404;28;20063;-82
2023/02/27 06:13:29;;;;;;;1.55;0.52;;;1.80;92.70;;;;;;5097104;28;20028;-82
2023/02/27 06:15:55;;;;;;;0.80;0.43;;;1.80;93.60;;;;;;5121172;27;20021;-82
2023/02/27 06:18:21;;;;;;;1.65;0.40;;;1.80;93.30;;;;;;5095885;28;20625;-83
2023/02/27 06:20:48;;;;;;;2.13;0.50;;;1.80;93.10;;;;;;5096190;28;20436;-82
2023/02/27 06:23:14;;;;;;;0.90;0.40;;;1.80;93.40;;;;;;5097150;28;20113;-85
2023/02/27 06:25:43;;;;;;;0.43;0.35;;;1.80;93.60;;;;;;5097356;28;20020;-84
2023/02/27 06:28:09;;;;;;;1.27;0.55;;;1.80;93.10;;;;;;5097498;28;20472;-85
2023/02/27 06:30:35;;;;;;;0.80;0.20;;;1.80;92.90;;;;;;5097067;28;20030;-84
2023/02/27 06:33:02;;;;;;;0.90;0.70;;;1.80;92.90;;;;;;5095818;28;20122;-83
2023/02/27 06:35:28;;;;;;;0.50;0.30;;;1.80;93.10;;;;;;5095866;28;20020;-79
2023/02/27 06:37:54;;;;;;;1.30;0.40;;;1.80;93.80;;;;;;5095933;28;20412;-79
2023/02/27 06:40:20;;;;;;;1.23;0.45;;;1.70;93.70;;;;;;5084628;28;20024;-79
2023/02/27 06:42:46;;;;;;;1.60;0.40;;;1.70;93.90;;;;;;5077448;28;20024;-79
2023/02/27 06:45:13;;;;;;;0.70;0.40;;;1.70;93.80;;;;;;5076960;28;20028;-79
2023/02/27 06:47:40;;;;;;;1.23;0.40;;;1.70;94.00;;;;;;5077010;28;20041;-81
2023/02/27 06:50:10;;;;;;;0.93;0.40;;;1.70;93.70;;;;;;5075954;28;20071;-81
2023/02/27 06:52:37;;;;;;;1.17;0.50;;;1.70;93.70;;;;;;5077009;28;20059;-81
2023/02/27 06:55:04;;;;;;;0.60;0.35;;;1.70;94.20;;;;;;5075435;28;20090;-82
2023/02/27 06:57:30;;;;;;;1.30;0.40;;;1.60;94.10;;;;;;5073313;28;20032;-81
2023/02/27 06:59:55;;;;;;;0.93;0.43;;;1.70;94.60;;;;;;5075841;28;20070;-81
2023/02/27 07:02:23;;;;;;;0.88;0.30;;;1.60;94.50;;;;;;5070853;28;20024;-81
2023/02/27 07:04:49;;;;;;;0.90;0.50;;;1.60;94.40;;;;;;5075515;28;20111;-81
2023/02/27 07:07:14;;;;;;;0.52;0.30;;;1.70;94.70;;;;;;5075715;28;20052;-83
2023/02/27 07:09:40;;;;;;;1.13;0.32;;;1.70;94.30;;;;;;5074945;28;20025;-83
2023/02/27 07:12:06;;;;;;;0.57;0.40;;;1.70;94.60;;;;;;5075749;28;20020;-83
2023/02/27 07:14:33;;;;;;;1.30;0.40;;;1.70;94.60;;;;;;5075699;28;20503;-82
2023/02/27 07:17:03;;;;;;;1.85;0.60;;;1.70;94.60;;;;;;5074064;28;20029;-81
2023/02/27 07:19:30;;;;;;;0.80;0.50;;;1.70;94.70;;;;;;5075320;28;20476;-83
2023/02/27 07:21:56;;;;;;;1.23;0.40;;;1.70;94.60;;;;;;5073372;28;20025;-85
2023/02/27 07:24:21;;;;;;;0.85;0.40;;;1.70;94.80;;;;;;5074688;28;20116;-84
2023/02/27 07:26:47;;;;;;;1.60;0.50;;;1.70;95.30;;;;;;5076313;28;20079;-84
2023/02/27 07:29:13;;;;;;;0.65;0.40;;;1.70;95.10;;;;;;5076343;28;20028;-84
2023/02/27 07:31:39;;;;;;;0.93;0.35;;;1.70;94.50;;;;;;5075092;28;20013;-84
2023/02/27 07:34:05;;;;;;;0.88;0.50;;;1.80;94.50;;;;;;5074914;28;20024;-84
2023/02/27 07:36:31;;;;;;;1.67;0.47;;;1.80;94.50;;;;;;5075040;28;20085;-83
2023/02/27 07:38:57;;;;;;;0.90;0.50;;;1.90;94.90;;;;;;5073991;28;20059;-83
2023/02/27 07:41:23;;;;;;;0.80;0.50;;;1.90;94.50;;;;;;5077316;28;20052;-81
2023/02/27 07:43:49;;;;;;;0.68;0.45;;;1.90;94.10;;;;;;5078980;28;20024;-81
2023/02/27 07:46:15;;;;;;;1.02;0.57;;;1.90;94.40;;;;;;5078710;28;20021;-80
2023/02/27 07:48:40;;;;;;;0.68;0.35;;;1.90;94.40;;;;;;5075587;28;20024;-81
2023/02/27 07:51:06;;;;;;;1.35;0.60;;;2.00;94.00;;;;;;5077610;28;20460;-81
2023/02/27 07:53:31;;;;;;;1.42;0.73;;;2.10;94.10;;;;;;5078595;28;20074;-81
2023/02/27 07:55:58;;;;;;;1.40;0.50;;;2.10;94.10;;;;;;5079104;28;20396;-81
2023/02/27 07:58:25;;;;;;;1.20;0.60;;;2.00;94.00;;;;;;5078137;28;20033;-81
2023/02/27 08:00:53;;;;;;;1.42;0.50;;;2.10;94.00;;;;;;5078425;28;20023;-84
2023/02/27 08:03:19;;;;;;;1.48;0.50;;;2.10;93.60;;;;;;5075414;28;20031;-83
2023/02/27 08:05:44;;;;;;;0.70;0.47;;;2.20;93.60;;;;;;5075768;28;20028;-85
2023/02/27 08:08:13;;;;;;;0.57;0.40;;;2.20;93.50;;;;;;5076086;28;20032;-84
2023/02/27 08:10:38;;;;;;;2.05;0.65;;;2.20;93.20;;;;;;5074877;28;20530;-83
2023/02/27 08:13:04;;;;;;;2.50;0.80;;;2.30;93.30;;;;;;5075483;28;20032;-81
2023/02/27 08:15:31;;;;;;;1.73;0.75;;;2.30;93.10;;;;;;5075389;28;20530;-83
2023/02/27 08:17:57;;;;;;;1.00;0.68;;;2.30;92.80;;;;;;5076851;28;20104;-83
2023/02/27 08:20:23;;;;;;;0.85;0.40;;;2.30;92.70;;;;;;5074535;28;20063;-83
2023/02/27 08:22:51;;;;;;;0.60;0.43;;;2.30;92.80;;;;;;5075017;28;20021;-86
2023/02/27 08:25:17;;;;;;;1.02;0.50;;;2.40;92.50;;;;;;5076175;28;20031;-87
2023/02/27 08:28:10;;;;;;;1.10;0.65;;;2.40;92.30;;;;;;5074576;28;20048;-84
2023/02/27 08:30:35;;;;;;;0.82;0.60;;;2.50;92.00;;;;;;5075423;28;20516;-66
2023/02/27 08:33:01;;;;;;;3.22;0.60;;;2.50;92.30;;;;;;5079895;28;20123;-68
2023/02/27 08:35:26;;;;;;;0.90;0.40;;;2.60;91.90;;;;;;5077454;28;20024;-66
2023/02/27 08:37:52;;;;;;;1.13;0.70;;;2.60;91.50;;;;;;5076666;28;20032;-66
2023/02/27 08:40:18;;;;;;;1.58;0.73;;;2.60;91.60;;;;;;5075239;28;20024;-68
2023/02/27 08:42:43;;;;;;;1.27;0.80;;;2.70;91.10;;;;;;5076226;28;20025;-68
2023/02/27 08:45:10;;;;;;;1.30;0.80;;;2.70;91.20;;;;;;5077234;28;20600;-70
2023/02/27 08:47:36;;;;;;;1.98;0.80;;;2.70;88.60;;;;;;5075891;28;20051;-69
2023/02/27 08:50:02;;;;;;;1.67;0.80;;;2.70;89.10;;;;;;5078423;28;20109;-69
2023/02/27 08:52:28;;;;;;;1.08;0.63;;;2.80;89.50;;;;;;5076450;28;20032;-68
2023/02/27 08:54:53;;;;;;;1.00;0.63;;;2.70;87.70;;;;;;5076233;28;20445;-68
2023/02/27 08:57:19;;;;;;;2.08;0.77;;;2.80;88.10;;;;;;5075090;28;20035;-69
2023/02/27 08:59:44;;;;;;;1.15;0.63;;;2.80;89.30;;;;;;5075831;28;20021;-69
2023/02/27 09:02:10;;;;;;;0.70;0.50;;;2.90;88.10;;;;;;5073529;28;20503;-68
2023/02/27 09:04:36;;;;;;;2.38;0.63;;;2.90;87.90;;;;;;5073090;28;20051;-69
2023/02/27 09:07:02;;;;;;;1.40;0.75;;;3.00;87.60;;;;;;5077980;28;20017;-69
2023/02/27 09:09:27;;;;;;;1.15;0.70;;;3.00;83.90;;;;;;5074641;28;20100;-69
2023/02/27 09:11:53;;;;;;;1.48;0.63;;;3.00;82.40;;;;;;5076610;28;20103;-68
2023/02/27 09:14:19;;;;;;;1.27;0.65;;;3.00;82.70;;;;;;5076059;28;20016;-68
2023/02/27 09:16:45;;;;;;;1.27;0.75;;;3.10;82.50;;;;;;5073363;28;20158;-69
2023/02/27 09:19:11;;;;;;;1.50;0.95;;;3.10;81.30;;;;;;5074064;28;20050;-70
2023/02/27 09:21:36;;;;;;;2.30;0.98;;;3.20;79.60;;;;;;5075478;28;20036;-69
2023/02/27 09:24:05;;;;;;;2.30;0.88;;;3.20;78.90;;;;;;5074526;28;20017;-69
2023/02/27 09:26:31;;;;;;;1.23;0.60;;;3.30;80.10;;;;;;5075879;28;20508;-69
2023/02/27 09:28:56;;;;;;;1.27;0.70;;;3.30;79.70;;;;;;5071785;28;20070;-71
2023/02/27 09:31:22;;;;;;;2.17;0.70;;;3.40;76.70;;;;;;5074318;28;20507;-69
2023/02/27 09:33:48;;;;;;;1.60;0.90;;;3.40;76.10;;;;;;5074371;28;20369;-69
2023/02/27 09:36:15;;;;;;;1.33;0.70;;;3.50;75.40;;;;;;5074954;28;20033;-68
2023/02/27 09:38:40;;;;;;;2.08;0.80;;;3.50;75.10;;;;;;5074843;28;20021;-70
2023/02/27 09:41:20;;;;;;;1.20;0.60;;;3.50;73.30;;;;;;5072910;28;20523;-69
2023/02/27 09:43:49;;;;;;;1.70;0.80;;;3.60;71.50;;;;;;5070626;28;20099;-69
2023/02/27 09:46:21;;;;;;;1.55;0.90;;;3.60;71.50;;;;;;5072319;28;20044;-69
2023/02/27 09:48:49;;;;;;;3.08;1.98;;;3.60;70.60;;;;;;5073905;28;20028;-69
2023/02/27 09:51:16;;;;;;;1.35;0.80;;;3.60;70.60;;;;;;5073867;28;20047;-69
2023/02/27 09:53:46;;;;;;;1.50;0.80;;;3.70;70.00;;;;;;5073706;28;20519;-69
2023/02/27 09:56:47;;;;;;;1.27;0.45;;;3.70;70.00;;;;;;5075286;28;20036;-69
2023/02/27 09:59:16;;;;;;;0.70;0.40;;;3.70;70.30;;;;;;5057880;28;20048;-69
2023/02/27 10:01:51;;;;;;;1.42;0.65;;;3.80;69.90;;;;;;5069483;28;20135;-69
2023/02/27 10:04:26;;;;;;;0.88;0.60;;;3.90;68.30;;;;;;5071560;28;20032;-68
2023/02/27 10:07:15;;;;;;;1.00;0.80;;;3.90;68.30;;;;;;5063574;28;20055;-73
2023/02/27 10:09:49;;;;;;;0.88;0.60;;;3.90;66.80;;;;;;5059063;28;20101;-69
2023/02/27 10:12:21;;;;;;;;;;;4.00;68.50;;;;;;5073008;28;20078;-71
2023/02/27 10:14:56;;;;;;;1.58;0.63;;;4.00;67.00;;;;;;5075208;28;19955;-72
2023/02/27 10:17:24;;;;;;;0.65;0.52;;;4.00;64.90;;;;;;5069988;28;20405;-72
2023/02/27 10:19:52;;;;;;;1.10;0.60;;;4.00;65.60;;;;;;5071077;28;20017;-73
2023/02/27 10:22:32;;;;;;;1.15;0.60;;;4.10;65.30;;;;;;5069147;28;20021;-73
2023/02/27 10:25:04;;;;;;;1.35;0.77;;;4.10;64.10;;;;;;5070594;28;20036;-74
2023/02/27 10:27:30;;;;;;;1.13;0.60;;;4.10;65.00;;;;;;5071522;28;20081;-72
2023/02/27 10:30:19;;;;;;;0.93;0.60;;;4.20;65.00;;;;;;5070871;28;20100;-74
2023/02/27 10:32:48;;;;;;;1.33;0.57;;;4.30;64.90;;;;;;5072244;28;20029;-73
2023/02/27 10:35:22;;;;;;;1.80;0.55;;;4.30;65.80;;;;;;5063073;28;20029;-71
2023/02/27 10:37:51;;;;;;;1.60;0.70;;;4.40;65.60;;;;;;5070536;28;20029;-73
2023/02/27 10:40:19;;;;;;;0.75;0.63;;;4.40;64.10;;;;;;5069805;28;20032;-71
2023/02/27 10:42:46;;;;;;;1.55;0.80;;;4.40;62.80;;;;;;5065376;28;20028;-71
2023/02/27 10:45:14;;;;;;;0.90;0.60;;;4.40;61.90;;;;;;5075296;28;20052;-71
2023/02/27 10:47:41;;;;;;;1.48;0.63;;;4.40;63.10;;;;;;5074360;28;20104;-71
2023/02/27 10:50:27;;;;;;;0.88;0.63;;;4.50;63.10;;;;;;5075796;28;20445;-70
2023/02/27 10:52:55;;;;;;;1.08;0.57;;;4.60;64.10;;;;;;5074603;28;20550;-69
2023/02/27 10:55:32;;;;;;;0.80;0.52;;;4.70;63.40;;;;;;5070961;28;20029;-69
2023/02/27 10:57:59;;;;;;;1.55;0.70;;;4.70;62.00;;;;;;5072176;28;20022;-69
2023/02/27 11:00:54;;;;;;;0.77;0.60;;;4.70;62.00;;;;;;5075645;28;20103;-75
2023/02/27 11:03:27;;;;;;;2.05;0.60;;;4.70;61.60;;;;;;5070889;28;20060;-71
2023/02/27 11:06:07;;;;;;;;;;;4.70;61.60;;;;;;5076410;28;20357;-72
2023/02/27 11:08:35;;;;;;;0.90;0.60;;;4.80;62.70;;;;;;5075785;28;19905;-70
2023/02/27 11:11:11;;;;;;;0.88;0.50;;;4.80;60.40;;;;;;5074546;28;20109;-70
2023/02/27 11:13:42;;;;;;;1.40;0.80;;;4.80;62.00;;;;;;5067743;28;20111;-76
2023/02/27 11:16:14;;;;;;;1.55;0.80;;;4.90;59.80;;;;;;5066857;28;20085;-72
2023/02/27 11:18:42;;;;;;;1.20;0.70;;;4.80;58.40;;;;;;5080754;28;20031;-69
2023/02/27 11:21:22;;;;;;;1.77;0.60;;;4.90;59.70;;;;;;5081608;28;20025;-72
2023/02/27 11:24:00;;;;;;;1.67;0.68;;;4.90;58.60;;;;;;5083699;28;20048;-69
2023/02/27 11:26:31;;;;;;;0.93;0.40;;;4.90;59.80;;;;;;5067933;28;20052;-70
2023/02/27 11:29:15;;;;;;;1.42;0.70;;;5.00;59.30;;;;;;5080441;28;20384;-70
2023/02/27 11:31:46;;;;;;;;;;;5.00;59.00;;;;;;5080677;28;20024;-70
2023/02/27 11:34:22;;;;;;;1.02;0.70;;;5.10;58.70;;;;;;5080426;28;19905;-70
2023/02/27 11:36:51;;;;;;;1.08;0.60;;;5.10;57.40;;;;;;5078755;28;20037;-71
2023/02/27 11:39:47;;;;;;;0.93;0.50;;;5.10;57.60;;;;;;5080196;28;20115;-70
2023/02/27 11:42:27;;;;;;;0.90;0.50;;;5.20;58.20;;;;;;5078716;28;20024;-70
2023/02/27 11:45:01;;;;;;;0.65;0.40;;;5.30;58.50;;;;;;5069361;28;20086;-72
2023/02/27 11:47:36;;;;;;;0.63;0.50;;;5.30;58.20;;;;;;5080849;28;20108;-71
2023/02/27 11:50:24;;;;;;;1.85;0.40;;;5.30;58.50;;;;;;5086797;28;20222;-70
2023/02/27 11:52:58;;;;;;;1.05;0.50;;;5.40;58.10;;;;;;5077820;28;20035;-71
2023/02/27 11:55:27;;;;;;;0.80;0.57;;;5.40;58.60;;;;;;5090274;28;20024;-71
2023/02/27 11:58:03;;;;;;;1.33;0.57;;;5.50;57.80;;;;;;5083392;28;20096;-71
2023/02/27 12:00:36;;;;;;;1.83;0.82;;;5.50;57.30;;;;;;5068782;28;20086;-71
2023/02/27 12:03:10;;;;;;;1.87;0.80;;;5.50;56.60;;;;;;5078153;28;20021;-70
2023/02/27 12:05:48;;;;;;;0.80;0.65;;;5.50;56.60;;;;;;5075097;28;20021;-70
2023/02/27 12:08:26;;;;;;;0.55;0.30;;;5.60;57.70;;;;;;5082668;28;20074;-70
2023/02/27 12:11:01;;;;;;;1.08;0.50;;;5.60;57.20;;;;;;5076863;28;20028;-70
2023/02/27 12:13:30;;;;;;;0.93;0.50;;;5.70;58.30;;;;;;5074039;28;20119;-71
2023/02/27 12:16:02;;;;;;;1.35;0.50;;;5.80;57.70;;;;;;5076065;28;20020;-68
2023/02/27 12:18:39;;;;;;;0.90;0.60;;;5.80;57.10;;;;;;5079339;28;20035;-70
2023/02/27 12:21:15;;;;;;;0.95;0.40;;;5.80;56.70;;;;;;5076980;28;20021;-69
2023/02/27 12:23:55;;;;;;;1.35;0.70;;;5.80;57.40;;;;;;5075611;28;20588;-69
2023/02/27 12:26:36;;;;;;;1.60;0.63;;;5.80;56.80;;;;;;5074232;28;20024;-71
2023/02/27 12:29:29;;;;;;;1.20;0.80;;;5.80;56.10;;;;;;5076050;28;20033;-70
2023/02/27 12:32:09;;;;;;;1.38;0.70;;;5.90;55.50;;;;;;5078782;28;20046;-71
2023/02/27 12:34:45;;;;;;;1.45;0.70;;;5.80;54.60;;;;;;5078697;28;20397;-69
2023/02/27 12:37:16;;;;;;;1.10;0.65;;;5.80;54.30;;;;;;5074938;28;20024;-69
2023/02/27 12:39:44;;;;;;;1.50;0.65;;;5.90;55.00;;;;;;5077138;28;20528;-69
2023/02/27 12:42:29;;;;;;;1.38;0.60;;;5.90;55.10;;;;;;5068316;28;20021;-70
2023/02/27 12:45:17;;;;;;;1.45;0.77;;;5.90;55.40;;;;;;5075408;28;20028;-72
2023/02/27 12:48:06;;;;;;;1.20;0.75;;;6.00;55.80;;;;;;5075776;28;20511;-71
2023/02/27 12:50:56;;;;;;;1.35;0.55;;;6.00;56.00;;;;;;5072796;28;20115;-71
2023/02/27 12:53:46;;;;;;;1.75;0.90;;;6.10;55.80;;;;;;5077057;28;21347;-72
2023/02/27 12:56:16;;;;;;;1.63;0.70;;;6.00;56.10;;;;;;5077050;28;20025;-73
2023/02/27 12:59:08;;;;;;;0.90;0.60;;;6.00;54.90;;;;;;5078745;28;20035;-71
2023/02/27 13:01:57;;;;;;;1.05;0.60;;;6.10;55.90;;;;;;5078425;28;20031;-70
2023/02/27 13:04:29;;;;;;;1.10;0.60;;;6.20;54.20;;;;;;5076385;28;20016;-70
2023/02/27 13:07:08;;;;;;;0.98;0.60;;;6.20;53.70;;;;;;5077960;28;20074;-70
2023/02/27 13:09:48;;;;;;;1.70;0.70;;;6.20;53.60;;;;;;5078272;28;20017;-72
2023/02/27 13:12:35;;;;;;;1.50;0.75;;;6.30;53.10;;;;;;5077715;28;20054;-72
2023/02/27 13:15:10;;;;;;;1.35;0.70;;;6.30;52.80;;;;;;5079832;28;20017;-73
2023/02/27 13:17:50;;;;;;;2.00;0.70;;;6.30;52.80;;;;;;5078110;28;20060;-73
2023/02/27 13:20:32;;;;;;;1.83;0.90;;;6.40;53.60;;;;;;5075405;28;20016;-70
2023/02/27 13:23:17;;;;;;;1.00;0.65;;;6.40;52.60;;;;;;5077603;28;20016;-73
2023/02/27 13:25:47;;;;;;;1.73;0.82;;;6.40;53.30;;;;;;5074917;28;20020;-73
2023/02/27 13:28:17;;;;;;;1.50;0.82;;;6.40;53.70;;;;;;5077804;28;20028;-73